BUF weather

Buffalo Niagara International Airport
Buffalo, New York, United States

Public forecast

Using degrees Fahrenheit for public forecast. Weather courtesy of forecast.io.

METAR (pilot weather report)

Retrieved 2019/03/25 18:54 UTC (52 minutes ago):

KBUF 251854Z 34009G14KT 10SM FEW060 FEW200 FEW250 03/M13 A3018 RMK AO2 SLP226 T00331128

TAF (pilot weather forecast)

Retrieved 2019/03/25 18:45 UTC (1 hour ago):

TAF KBUF 251743Z 2518/2618 01008KT P6SM SKC FM260600 VRB03KT P6SM SKC